sensor_id;sensor_type;location;lat;lon;timestamp;P1;durP1;ratioP1;P2;durP2;ratioP2
8564;SDS011;4320;51.498;6.556;2022-11-20T00:01:14;20.97;;;12.67;;
8564;SDS011;4320;51.498;6.556;2022-11-20T00:03:41;19.87;;;12.43;;
8564;SDS011;4320;51.498;6.556;2022-11-20T00:06:07;20.37;;;13.00;;
8564;SDS011;4320;51.498;6.556;2022-11-20T00:08:35;17.50;;;11.30;;
8564;SDS011;4320;51.498;6.556;2022-11-20T00:11:05;21.17;;;12.57;;
8564;SDS011;4320;51.498;6.556;2022-11-20T00:13:36;15.30;;;10.73;;
8564;SDS011;4320;51.498;6.556;2022-11-20T00:16:04;19.60;;;12.57;;
8564;SDS011;4320;51.498;6.556;2022-11-20T00:18:32;16.67;;;11.97;;
8564;SDS011;4320;51.498;6.556;2022-11-20T00:21:02;18.60;;;11.37;;
8564;SDS011;4320;51.498;6.556;2022-11-20T00:23:29;15.53;;;11.17;;
8564;SDS011;4320;51.498;6.556;2022-11-20T00:25:54;20.80;;;12.30;;
8564;SDS011;4320;51.498;6.556;2022-11-20T00:28:20;19.97;;;12.90;;
8564;SDS011;4320;51.498;6.556;2022-11-20T00:30:46;19.10;;;12.03;;
8564;SDS011;4320;51.498;6.556;2022-11-20T00:33:11;18.47;;;11.50;;
8564;SDS011;4320;51.498;6.556;2022-11-20T00:35:37;17.73;;;12.13;;
8564;SDS011;4320;51.498;6.556;2022-11-20T00:38:02;16.97;;;11.93;;
8564;SDS011;4320;51.498;6.556;2022-11-20T00:40:28;18.00;;;11.53;;
8564;SDS011;4320;51.498;6.556;2022-11-20T00:42:54;17.47;;;11.87;;
8564;SDS011;4320;51.498;6.556;2022-11-20T00:45:19;17.33;;;10.53;;
8564;SDS011;4320;51.498;6.556;2022-11-20T00:47:45;16.27;;;11.27;;
8564;SDS011;4320;51.498;6.556;2022-11-20T00:50:11;16.00;;;11.27;;
8564;SDS011;4320;51.498;6.556;2022-11-20T00:52:36;15.63;;;10.97;;
8564;SDS011;4320;51.498;6.556;2022-11-20T00:55:02;18.07;;;11.67;;
8564;SDS011;4320;51.498;6.556;2022-11-20T00:57:28;16.87;;;11.57;;
8564;SDS011;4320;51.498;6.556;2022-11-20T00:59:53;16.77;;;11.83;;
8564;SDS011;4320;51.498;6.556;2022-11-20T01:02:19;16.33;;;10.73;;
8564;SDS011;4320;51.498;6.556;2022-11-20T01:04:44;18.27;;;12.13;;
8564;SDS011;4320;51.498;6.556;2022-11-20T01:07:10;18.20;;;12.40;;
8564;SDS011;4320;51.498;6.556;2022-11-20T01:09:36;15.90;;;11.30;;
8564;SDS011;4320;51.498;6.556;2022-11-20T01:12:01;17.93;;;12.27;;
8564;SDS011;4320;51.498;6.556;2022-11-20T01:14:27;18.77;;;11.77;;
8564;SDS011;4320;51.498;6.556;2022-11-20T01:16:53;19.10;;;12.63;;
8564;SDS011;4320;51.498;6.556;2022-11-20T01:19:20;16.20;;;10.37;;
8564;SDS011;4320;51.498;6.556;2022-11-20T01:21:51;17.07;;;11.17;;
8564;SDS011;4320;51.498;6.556;2022-11-20T01:24:18;17.07;;;12.20;;
8564;SDS011;4320;51.498;6.556;2022-11-20T01:26:45;17.80;;;11.90;;
8564;SDS011;4320;51.498;6.556;2022-11-20T01:29:14;17.20;;;12.03;;
8564;SDS011;4320;51.498;6.556;2022-11-20T01:31:41;18.97;;;11.40;;
8564;SDS011;4320;51.498;6.556;2022-11-20T01:34:14;17.77;;;12.20;;
8564;SDS011;4320;51.498;6.556;2022-11-20T01:36:42;22.00;;;13.27;;
8564;SDS011;4320;51.498;6.556;2022-11-20T01:39:13;21.80;;;13.37;;
8564;SDS011;4320;51.498;6.556;2022-11-20T01:41:41;17.87;;;12.17;;
8564;SDS011;4320;51.498;6.556;2022-11-20T01:47:20;20.53;;;13.03;;
8564;SDS011;4320;51.498;6.556;2022-11-20T01:49:58;22.60;;;12.87;;
8564;SDS011;4320;51.498;6.556;2022-11-20T01:52:36;17.27;;;12.33;;
8564;SDS011;4320;51.498;6.556;2022-11-20T01:55:06;18.60;;;13.10;;
8564;SDS011;4320;51.498;6.556;2022-11-20T01:57:35;19.60;;;12.63;;
8564;SDS011;4320;51.498;6.556;2022-11-20T02:00:04;17.17;;;11.70;;
8564;SDS011;4320;51.498;6.556;2022-11-20T02:02:32;16.67;;;11.53;;
8564;SDS011;4320;51.498;6.556;2022-11-20T02:05:00;20.63;;;12.50;;
8564;SDS011;4320;51.498;6.556;2022-11-20T02:07:39;17.30;;;11.63;;
8564;SDS011;4320;51.498;6.556;2022-11-20T02:10:06;18.83;;;12.70;;
8564;SDS011;4320;51.498;6.556;2022-11-20T02:12:32;18.80;;;12.20;;
8564;SDS011;4320;51.498;6.556;2022-11-20T02:15:16;19.00;;;12.63;;
8564;SDS011;4320;51.498;6.556;2022-11-20T02:17:41;18.33;;;12.30;;
8564;SDS011;4320;51.498;6.556;2022-11-20T02:20:07;20.17;;;12.97;;
8564;SDS011;4320;51.498;6.556;2022-11-20T02:22:35;18.07;;;12.57;;
8564;SDS011;4320;51.498;6.556;2022-11-20T02:25:08;18.40;;;12.67;;
8564;SDS011;4320;51.498;6.556;2022-11-20T02:27:35;18.40;;;12.03;;
8564;SDS011;4320;51.498;6.556;2022-11-20T02:30:02;19.67;;;12.87;;
8564;SDS011;4320;51.498;6.556;2022-11-20T02:32:31;18.57;;;12.33;;
8564;SDS011;4320;51.498;6.556;2022-11-20T02:37:42;21.13;;;12.97;;
8564;SDS011;4320;51.498;6.556;2022-11-20T02:40:09;16.93;;;12.13;;
8564;SDS011;4320;51.498;6.556;2022-11-20T02:42:35;17.40;;;11.97;;
8564;SDS011;4320;51.498;6.556;2022-11-20T02:45:02;24.67;;;13.77;;
8564;SDS011;4320;51.498;6.556;2022-11-20T02:47:28;20.80;;;14.63;;
8564;SDS011;4320;51.498;6.556;2022-11-20T02:49:54;24.17;;;13.40;;
8564;SDS011;4320;51.498;6.556;2022-11-20T02:52:19;20.57;;;13.10;;
8564;SDS011;4320;51.498;6.556;2022-11-20T02:54:45;21.37;;;13.77;;
8564;SDS011;4320;51.498;6.556;2022-11-20T02:57:11;23.50;;;16.60;;
8564;SDS011;4320;51.498;6.556;2022-11-20T02:59:36;25.67;;;17.37;;
8564;SDS011;4320;51.498;6.556;2022-11-20T03:02:02;35.10;;;20.17;;
8564;SDS011;4320;51.498;6.556;2022-11-20T03:04:28;31.07;;;18.73;;
8564;SDS011;4320;51.498;6.556;2022-11-20T03:06:53;24.10;;;14.57;;
8564;SDS011;4320;51.498;6.556;2022-11-20T03:09:19;23.20;;;15.20;;
8564;SDS011;4320;51.498;6.556;2022-11-20T03:11:45;23.43;;;14.37;;
8564;SDS011;4320;51.498;6.556;2022-11-20T03:14:11;19.60;;;14.03;;
8564;SDS011;4320;51.498;6.556;2022-11-20T03:16:36;20.90;;;14.10;;
8564;SDS011;4320;51.498;6.556;2022-11-20T03:19:02;20.07;;;13.60;;
8564;SDS011;4320;51.498;6.556;2022-11-20T03:21:27;22.50;;;12.63;;
8564;SDS011;4320;51.498;6.556;2022-11-20T03:23:53;20.10;;;13.53;;
8564;SDS011;4320;51.498;6.556;2022-11-20T03:26:22;22.03;;;13.53;;
8564;SDS011;4320;51.498;6.556;2022-11-20T03:28:54;23.17;;;14.53;;
8564;SDS011;4320;51.498;6.556;2022-11-20T03:31:22;22.33;;;13.50;;
8564;SDS011;4320;51.498;6.556;2022-11-20T03:33:56;15.97;;;11.47;;
8564;SDS011;4320;51.498;6.556;2022-11-20T03:36:23;19.20;;;12.47;;
8564;SDS011;4320;51.498;6.556;2022-11-20T03:38:49;20.80;;;12.00;;
8564;SDS011;4320;51.498;6.556;2022-11-20T03:41:22;15.80;;;11.57;;
8564;SDS011;4320;51.498;6.556;2022-11-20T03:43:57;21.83;;;12.00;;
8564;SDS011;4320;51.498;6.556;2022-11-20T03:46:24;17.53;;;12.77;;
8564;SDS011;4320;51.498;6.556;2022-11-20T03:48:51;17.33;;;11.80;;
8564;SDS011;4320;51.498;6.556;2022-11-20T03:51:21;21.27;;;13.00;;
8564;SDS011;4320;51.498;6.556;2022-11-20T03:53:49;19.40;;;11.70;;
8564;SDS011;4320;51.498;6.556;2022-11-20T03:56:17;19.83;;;12.13;;
8564;SDS011;4320;51.498;6.556;2022-11-20T03:58:47;17.30;;;11.60;;
8564;SDS011;4320;51.498;6.556;2022-11-20T04:01:13;15.77;;;11.40;;
8564;SDS011;4320;51.498;6.556;2022-11-20T04:03:43;18.43;;;11.70;;
8564;SDS011;4320;51.498;6.556;2022-11-20T04:08:43;20.00;;;11.83;;
8564;SDS011;4320;51.498;6.556;2022-11-20T04:11:18;17.50;;;11.57;;
8564;SDS011;4320;51.498;6.556;2022-11-20T04:13:51;17.37;;;12.00;;
8564;SDS011;4320;51.498;6.556;2022-11-20T04:16:20;15.13;;;10.60;;
8564;SDS011;4320;51.498;6.556;2022-11-20T04:18:46;17.57;;;11.47;;
8564;SDS011;4320;51.498;6.556;2022-11-20T04:21:12;18.60;;;12.30;;
8564;SDS011;4320;51.498;6.556;2022-11-20T04:23:38;17.30;;;11.73;;
8564;SDS011;4320;51.498;6.556;2022-11-20T04:26:05;17.27;;;11.47;;
8564;SDS011;4320;51.498;6.556;2022-11-20T04:28:32;17.03;;;11.33;;
8564;SDS011;4320;51.498;6.556;2022-11-20T04:31:12;18.50;;;12.80;;
8564;SDS011;4320;51.498;6.556;2022-11-20T04:33:48;19.30;;;12.93;;
8564;SDS011;4320;51.498;6.556;2022-11-20T04:36:17;26.17;;;14.87;;
8564;SDS011;4320;51.498;6.556;2022-11-20T04:38:50;22.43;;;13.00;;
8564;SDS011;4320;51.498;6.556;2022-11-20T04:41:18;20.13;;;13.27;;
8564;SDS011;4320;51.498;6.556;2022-11-20T04:43:48;22.57;;;13.93;;
8564;SDS011;4320;51.498;6.556;2022-11-20T04:46:19;26.73;;;15.70;;
8564;SDS011;4320;51.498;6.556;2022-11-20T04:48:45;18.70;;;12.43;;
8564;SDS011;4320;51.498;6.556;2022-11-20T04:51:12;21.73;;;13.53;;
8564;SDS011;4320;51.498;6.556;2022-11-20T04:53:38;23.27;;;13.83;;
8564;SDS011;4320;51.498;6.556;2022-11-20T04:56:05;23.17;;;14.47;;
8564;SDS011;4320;51.498;6.556;2022-11-20T04:58:32;23.73;;;15.07;;
8564;SDS011;4320;51.498;6.556;2022-11-20T05:01:02;21.27;;;14.33;;
8564;SDS011;4320;51.498;6.556;2022-11-20T05:03:29;22.33;;;13.17;;
8564;SDS011;4320;51.498;6.556;2022-11-20T05:05:55;18.23;;;11.80;;
8564;SDS011;4320;51.498;6.556;2022-11-20T05:08:20;18.07;;;11.73;;
8564;SDS011;4320;51.498;6.556;2022-11-20T05:10:46;16.63;;;11.20;;
8564;SDS011;4320;51.498;6.556;2022-11-20T05:13:12;18.03;;;11.97;;
8564;SDS011;4320;51.498;6.556;2022-11-20T05:15:37;17.13;;;12.00;;
8564;SDS011;4320;51.498;6.556;2022-11-20T05:18:03;18.07;;;11.80;;
8564;SDS011;4320;51.498;6.556;2022-11-20T05:20:29;21.17;;;12.43;;
8564;SDS011;4320;51.498;6.556;2022-11-20T05:22:58;19.27;;;12.03;;
8564;SDS011;4320;51.498;6.556;2022-11-20T05:25:24;17.97;;;12.30;;
8564;SDS011;4320;51.498;6.556;2022-11-20T05:27:50;16.23;;;12.17;;
8564;SDS011;4320;51.498;6.556;2022-11-20T05:30:15;16.83;;;12.13;;
8564;SDS011;4320;51.498;6.556;2022-11-20T05:32:41;17.70;;;12.00;;
8564;SDS011;4320;51.498;6.556;2022-11-20T05:35:07;17.97;;;11.57;;
8564;SDS011;4320;51.498;6.556;2022-11-20T05:37:32;15.70;;;11.83;;
8564;SDS011;4320;51.498;6.556;2022-11-20T05:39:58;19.00;;;12.73;;
8564;SDS011;4320;51.498;6.556;2022-11-20T05:42:24;18.53;;;11.77;;
8564;SDS011;4320;51.498;6.556;2022-11-20T05:44:56;18.03;;;12.63;;
8564;SDS011;4320;51.498;6.556;2022-11-20T05:47:26;20.70;;;12.80;;
8564;SDS011;4320;51.498;6.556;2022-11-20T05:49:53;18.13;;;12.60;;
8564;SDS011;4320;51.498;6.556;2022-11-20T05:52:18;16.63;;;12.03;;
8564;SDS011;4320;51.498;6.556;2022-11-20T05:54:44;18.57;;;12.70;;
8564;SDS011;4320;51.498;6.556;2022-11-20T05:57:10;21.17;;;13.33;;
8564;SDS011;4320;51.498;6.556;2022-11-20T05:59:35;18.70;;;13.00;;
8564;SDS011;4320;51.498;6.556;2022-11-20T06:02:01;18.70;;;12.00;;
8564;SDS011;4320;51.498;6.556;2022-11-20T06:04:27;20.47;;;13.07;;
8564;SDS011;4320;51.498;6.556;2022-11-20T06:06:52;22.57;;;13.67;;
8564;SDS011;4320;51.498;6.556;2022-11-20T06:09:18;22.57;;;14.50;;
8564;SDS011;4320;51.498;6.556;2022-11-20T06:11:43;22.97;;;14.50;;
8564;SDS011;4320;51.498;6.556;2022-11-20T06:14:09;23.37;;;14.13;;
8564;SDS011;4320;51.498;6.556;2022-11-20T06:16:35;21.73;;;13.63;;
8564;SDS011;4320;51.498;6.556;2022-11-20T06:19:01;22.10;;;14.80;;
8564;SDS011;4320;51.498;6.556;2022-11-20T06:21:26;20.60;;;14.53;;
8564;SDS011;4320;51.498;6.556;2022-11-20T06:23:52;22.33;;;14.63;;
8564;SDS011;4320;51.498;6.556;2022-11-20T06:26:20;19.20;;;14.40;;
8564;SDS011;4320;51.498;6.556;2022-11-20T06:28:47;20.93;;;13.87;;
8564;SDS011;4320;51.498;6.556;2022-11-20T06:31:14;19.47;;;13.50;;
8564;SDS011;4320;51.498;6.556;2022-11-20T06:33:41;19.07;;;13.27;;
8564;SDS011;4320;51.498;6.556;2022-11-20T06:36:07;21.00;;;14.50;;
8564;SDS011;4320;51.498;6.556;2022-11-20T06:38:34;24.00;;;13.27;;
8564;SDS011;4320;51.498;6.556;2022-11-20T06:41:00;19.67;;;13.20;;
8564;SDS011;4320;51.498;6.556;2022-11-20T06:43:25;23.13;;;14.13;;
8564;SDS011;4320;51.498;6.556;2022-11-20T06:45:53;23.60;;;15.47;;
8564;SDS011;4320;51.498;6.556;2022-11-20T06:48:21;25.03;;;15.57;;
8564;SDS011;4320;51.498;6.556;2022-11-20T06:50:47;19.53;;;13.57;;
8564;SDS011;4320;51.498;6.556;2022-11-20T06:53:13;20.27;;;14.57;;
8564;SDS011;4320;51.498;6.556;2022-11-20T06:55:42;21.67;;;14.23;;
8564;SDS011;4320;51.498;6.556;2022-11-20T06:58:09;23.87;;;14.87;;
8564;SDS011;4320;51.498;6.556;2022-11-20T07:00:34;21.60;;;14.57;;
8564;SDS011;4320;51.498;6.556;2022-11-20T07:03:03;23.70;;;15.33;;
8564;SDS011;4320;51.498;6.556;2022-11-20T07:05:33;21.93;;;14.60;;
8564;SDS011;4320;51.498;6.556;2022-11-20T07:08:00;24.80;;;14.47;;
8564;SDS011;4320;51.498;6.556;2022-11-20T07:10:26;20.23;;;14.67;;
8564;SDS011;4320;51.498;6.556;2022-11-20T07:12:52;22.00;;;14.67;;
8564;SDS011;4320;51.498;6.556;2022-11-20T07:15:18;22.97;;;14.37;;
8564;SDS011;4320;51.498;6.556;2022-11-20T07:17:45;21.80;;;14.93;;
8564;SDS011;4320;51.498;6.556;2022-11-20T07:20:11;23.10;;;15.63;;
8564;SDS011;4320;51.498;6.556;2022-11-20T07:22:40;28.53;;;17.17;;
8564;SDS011;4320;51.498;6.556;2022-11-20T07:25:06;27.93;;;16.57;;
8564;SDS011;4320;51.498;6.556;2022-11-20T07:27:32;25.37;;;15.57;;
8564;SDS011;4320;51.498;6.556;2022-11-20T07:29:59;21.87;;;14.53;;
8564;SDS011;4320;51.498;6.556;2022-11-20T07:32:25;22.97;;;15.90;;
8564;SDS011;4320;51.498;6.556;2022-11-20T07:34:51;22.07;;;15.60;;
8564;SDS011;4320;51.498;6.556;2022-11-20T07:37:17;23.67;;;15.87;;
8564;SDS011;4320;51.498;6.556;2022-11-20T07:39:42;21.07;;;15.27;;
8564;SDS011;4320;51.498;6.556;2022-11-20T07:42:08;26.93;;;15.83;;
8564;SDS011;4320;51.498;6.556;2022-11-20T07:44:34;25.43;;;17.07;;
8564;SDS011;4320;51.498;6.556;2022-11-20T07:47:00;34.87;;;20.77;;
8564;SDS011;4320;51.498;6.556;2022-11-20T07:49:26;29.60;;;17.90;;
8564;SDS011;4320;51.498;6.556;2022-11-20T07:51:52;27.43;;;18.20;;
8564;SDS011;4320;51.498;6.556;2022-11-20T07:54:19;27.63;;;18.63;;
8564;SDS011;4320;51.498;6.556;2022-11-20T07:56:45;29.10;;;17.47;;
8564;SDS011;4320;51.498;6.556;2022-11-20T07:59:11;24.90;;;17.33;;
8564;SDS011;4320;51.498;6.556;2022-11-20T08:01:37;24.30;;;16.80;;
8564;SDS011;4320;51.498;6.556;2022-11-20T08:04:03;25.97;;;17.07;;
8564;SDS011;4320;51.498;6.556;2022-11-20T08:06:29;26.63;;;16.00;;
8564;SDS011;4320;51.498;6.556;2022-11-20T08:08:54;27.97;;;18.37;;
8564;SDS011;4320;51.498;6.556;2022-11-20T08:11:20;28.53;;;19.10;;
8564;SDS011;4320;51.498;6.556;2022-11-20T08:14:04;28.33;;;16.93;;
8564;SDS011;4320;51.498;6.556;2022-11-20T08:16:43;23.73;;;16.60;;
8564;SDS011;4320;51.498;6.556;2022-11-20T08:19:10;25.40;;;17.60;;
8564;SDS011;4320;51.498;6.556;2022-11-20T08:21:36;24.67;;;16.73;;
8564;SDS011;4320;51.498;6.556;2022-11-20T08:24:02;24.00;;;16.73;;
8564;SDS011;4320;51.498;6.556;2022-11-20T08:26:28;25.37;;;17.80;;
8564;SDS011;4320;51.498;6.556;2022-11-20T08:28:55;23.23;;;16.37;;
8564;SDS011;4320;51.498;6.556;2022-11-20T08:31:22;25.27;;;16.97;;
8564;SDS011;4320;51.498;6.556;2022-11-20T08:33:49;25.37;;;16.03;;
8564;SDS011;4320;51.498;6.556;2022-11-20T08:36:15;28.00;;;16.40;;
8564;SDS011;4320;51.498;6.556;2022-11-20T08:38:41;23.07;;;16.37;;
8564;SDS011;4320;51.498;6.556;2022-11-20T08:41:06;25.30;;;16.67;;
8564;SDS011;4320;51.498;6.556;2022-11-20T08:43:56;24.60;;;16.10;;
8564;SDS011;4320;51.498;6.556;2022-11-20T08:46:26;23.23;;;16.57;;
8564;SDS011;4320;51.498;6.556;2022-11-20T08:48:53;27.10;;;17.13;;
8564;SDS011;4320;51.498;6.556;2022-11-20T08:51:19;23.17;;;16.03;;
8564;SDS011;4320;51.498;6.556;2022-11-20T08:53:45;29.70;;;17.40;;
8564;SDS011;4320;51.498;6.556;2022-11-20T08:56:13;24.90;;;17.17;;
8564;SDS011;4320;51.498;6.556;2022-11-20T08:58:39;23.87;;;17.13;;
8564;SDS011;4320;51.498;6.556;2022-11-20T09:01:05;23.57;;;15.87;;
8564;SDS011;4320;51.498;6.556;2022-11-20T09:03:31;24.67;;;17.23;;
8564;SDS011;4320;51.498;6.556;2022-11-20T09:05:57;26.63;;;16.33;;
8564;SDS011;4320;51.498;6.556;2022-11-20T09:08:27;20.97;;;14.77;;
8564;SDS011;4320;51.498;6.556;2022-11-20T09:10:54;22.37;;;15.70;;
8564;SDS011;4320;51.498;6.556;2022-11-20T09:13:21;23.13;;;15.83;;
8564;SDS011;4320;51.498;6.556;2022-11-20T09:15:52;24.20;;;16.47;;
8564;SDS011;4320;51.498;6.556;2022-11-20T09:18:25;28.03;;;17.47;;
8564;SDS011;4320;51.498;6.556;2022-11-20T09:20:51;28.93;;;16.20;;
8564;SDS011;4320;51.498;6.556;2022-11-20T09:23:21;28.50;;;17.13;;
8564;SDS011;4320;51.498;6.556;2022-11-20T09:25:46;21.97;;;14.77;;
8564;SDS011;4320;51.498;6.556;2022-11-20T09:28:12;24.13;;;15.87;;
8564;SDS011;4320;51.498;6.556;2022-11-20T09:30:38;22.67;;;15.73;;
8564;SDS011;4320;51.498;6.556;2022-11-20T09:33:04;20.53;;;14.27;;
8564;SDS011;4320;51.498;6.556;2022-11-20T09:35:31;19.93;;;14.67;;
8564;SDS011;4320;51.498;6.556;2022-11-20T09:37:57;21.93;;;14.77;;
8564;SDS011;4320;51.498;6.556;2022-11-20T09:40:24;23.83;;;17.07;;
8564;SDS011;4320;51.498;6.556;2022-11-20T09:42:54;23.00;;;15.83;;
8564;SDS011;4320;51.498;6.556;2022-11-20T09:48:20;21.85;;;15.38;;
8564;SDS011;4320;51.498;6.556;2022-11-20T09:53:58;18.50;;;14.45;;
8564;SDS011;4320;51.498;6.556;2022-11-20T09:56:26;21.60;;;15.83;;
8564;SDS011;4320;51.498;6.556;2022-11-20T09:58:54;22.67;;;16.20;;
8564;SDS011;4320;51.498;6.556;2022-11-20T10:01:40;22.70;;;16.23;;
8564;SDS011;4320;51.498;6.556;2022-11-20T10:04:17;23.83;;;16.17;;
8564;SDS011;4320;51.498;6.556;2022-11-20T10:10:01;21.33;;;15.00;;
8564;SDS011;4320;51.498;6.556;2022-11-20T10:18:11;23.17;;;15.93;;
8564;SDS011;4320;51.498;6.556;2022-11-20T10:24:08;23.73;;;16.03;;
8564;SDS011;4320;51.498;6.556;2022-11-20T10:27:12;23.63;;;14.93;;
8564;SDS011;4320;51.498;6.556;2022-11-20T10:30:07;19.87;;;14.03;;
8564;SDS011;4320;51.498;6.556;2022-11-20T10:32:37;22.63;;;15.33;;
8564;SDS011;4320;51.498;6.556;2022-11-20T10:37:44;21.67;;;14.87;;
8564;SDS011;4320;51.498;6.556;2022-11-20T10:42:56;24.20;;;15.23;;
8564;SDS011;4320;51.498;6.556;2022-11-20T10:47:56;25.30;;;16.10;;
8564;SDS011;4320;51.498;6.556;2022-11-20T10:50:35;24.07;;;15.33;;
8564;SDS011;4320;51.498;6.556;2022-11-20T11:01:20;24.93;;;16.03;;
8564;SDS011;4320;51.498;6.556;2022-11-20T11:03:51;25.83;;;16.70;;
8564;SDS011;4320;51.498;6.556;2022-11-20T11:06:35;29.37;;;16.83;;
8564;SDS011;4320;51.498;6.556;2022-11-20T11:09:11;24.93;;;16.53;;
8564;SDS011;4320;51.498;6.556;2022-11-20T11:11:40;26.73;;;16.10;;
8564;SDS011;4320;51.498;6.556;2022-11-20T11:14:06;29.90;;;17.47;;
8564;SDS011;4320;51.498;6.556;2022-11-20T11:16:34;29.47;;;17.53;;
8564;SDS011;4320;51.498;6.556;2022-11-20T11:19:04;27.43;;;18.37;;
8564;SDS011;4320;51.498;6.556;2022-11-20T11:21:44;29.07;;;19.00;;
8564;SDS011;4320;51.498;6.556;2022-11-20T11:24:23;27.00;;;18.00;;
8564;SDS011;4320;51.498;6.556;2022-11-20T11:26:55;28.03;;;17.63;;
8564;SDS011;4320;51.498;6.556;2022-11-20T11:29:21;28.93;;;18.87;;
8564;SDS011;4320;51.498;6.556;2022-11-20T11:31:47;30.40;;;18.20;;
8564;SDS011;4320;51.498;6.556;2022-11-20T11:34:14;29.43;;;18.53;;
8564;SDS011;4320;51.498;6.556;2022-11-20T11:36:41;31.13;;;20.03;;
8564;SDS011;4320;51.498;6.556;2022-11-20T11:39:16;28.57;;;18.67;;
8564;SDS011;4320;51.498;6.556;2022-11-20T11:41:45;27.87;;;18.57;;
8564;SDS011;4320;51.498;6.556;2022-11-20T11:44:16;29.40;;;18.27;;
8564;SDS011;4320;51.498;6.556;2022-11-20T11:47:03;29.50;;;17.27;;
8564;SDS011;4320;51.498;6.556;2022-11-20T11:49:31;29.47;;;17.67;;
8564;SDS011;4320;51.498;6.556;2022-11-20T11:54:54;30.10;;;18.37;;
8564;SDS011;4320;51.498;6.556;2022-11-20T12:02:29;30.13;;;17.20;;
8564;SDS011;4320;51.498;6.556;2022-11-20T12:05:08;30.30;;;17.37;;
8564;SDS011;4320;51.498;6.556;2022-11-20T12:15:58;34.13;;;17.20;;
8564;SDS011;4320;51.498;6.556;2022-11-20T12:18:27;29.03;;;15.70;;
8564;SDS011;4320;51.498;6.556;2022-11-20T12:23:55;27.77;;;16.23;;
8564;SDS011;4320;51.498;6.556;2022-11-20T12:29:09;27.50;;;16.27;;
8564;SDS011;4320;51.498;6.556;2022-11-20T12:31:41;29.67;;;15.47;;
8564;SDS011;4320;51.498;6.556;2022-11-20T12:36:44;26.57;;;15.23;;
8564;SDS011;4320;51.498;6.556;2022-11-20T12:39:35;26.90;;;16.03;;
8564;SDS011;4320;51.498;6.556;2022-11-20T12:45:14;28.13;;;15.90;;
8564;SDS011;4320;51.498;6.556;2022-11-20T12:56:17;29.77;;;16.90;;
8564;SDS011;4320;51.498;6.556;2022-11-20T12:59:09;27.70;;;15.63;;
8564;SDS011;4320;51.498;6.556;2022-11-20T13:02:46;29.67;;;15.37;;
8564;SDS011;4320;51.498;6.556;2022-11-20T13:07:47;30.37;;;15.73;;
8564;SDS011;4320;51.498;6.556;2022-11-20T13:10:14;31.60;;;18.23;;
8564;SDS011;4320;51.498;6.556;2022-11-20T13:13:01;30.40;;;18.10;;
8564;SDS011;4320;51.498;6.556;2022-11-20T13:18:42;29.23;;;17.20;;
8564;SDS011;4320;51.498;6.556;2022-11-20T13:21:20;28.63;;;19.40;;
8564;SDS011;4320;51.498;6.556;2022-11-20T13:26:43;26.87;;;15.80;;
8564;SDS011;4320;51.498;6.556;2022-11-20T13:29:11;31.33;;;16.77;;
8564;SDS011;4320;51.498;6.556;2022-11-20T13:31:43;28.60;;;16.23;;
8564;SDS011;4320;51.498;6.556;2022-11-20T13:34:11;33.07;;;17.90;;
8564;SDS011;4320;51.498;6.556;2022-11-20T13:36:51;29.77;;;17.10;;
8564;SDS011;4320;51.498;6.556;2022-11-20T13:39:25;27.77;;;16.60;;
8564;SDS011;4320;51.498;6.556;2022-11-20T13:41:56;29.10;;;17.13;;
8564;SDS011;4320;51.498;6.556;2022-11-20T13:44:50;31.93;;;17.00;;
8564;SDS011;4320;51.498;6.556;2022-11-20T13:47:23;34.33;;;18.33;;
8564;SDS011;4320;51.498;6.556;2022-11-20T13:49:51;35.13;;;17.87;;
8564;SDS011;4320;51.498;6.556;2022-11-20T14:00:09;37.13;;;19.07;;
8564;SDS011;4320;51.498;6.556;2022-11-20T14:02:36;37.07;;;19.50;;
8564;SDS011;4320;51.498;6.556;2022-11-20T14:05:02;31.17;;;18.57;;
8564;SDS011;4320;51.498;6.556;2022-11-20T14:07:37;33.10;;;17.63;;
8564;SDS011;4320;51.498;6.556;2022-11-20T14:10:18;32.47;;;18.23;;
8564;SDS011;4320;51.498;6.556;2022-11-20T14:12:54;31.67;;;17.53;;
8564;SDS011;4320;51.498;6.556;2022-11-20T14:15:39;27.07;;;17.20;;
8564;SDS011;4320;51.498;6.556;2022-11-20T14:18:13;31.03;;;16.80;;
8564;SDS011;4320;51.498;6.556;2022-11-20T14:20:41;32.00;;;17.60;;
8564;SDS011;4320;51.498;6.556;2022-11-20T14:23:09;30.07;;;17.93;;
8564;SDS011;4320;51.498;6.556;2022-11-20T14:25:35;35.80;;;17.10;;
8564;SDS011;4320;51.498;6.556;2022-11-20T14:28:02;30.43;;;16.97;;
8564;SDS011;4320;51.498;6.556;2022-11-20T14:33:25;28.67;;;18.30;;
8564;SDS011;4320;51.498;6.556;2022-11-20T14:35:52;30.97;;;16.80;;
8564;SDS011;4320;51.498;6.556;2022-11-20T14:38:29;30.50;;;17.63;;
8564;SDS011;4320;51.498;6.556;2022-11-20T14:41:14;27.10;;;15.77;;
8564;SDS011;4320;51.498;6.556;2022-11-20T14:43:56;30.73;;;17.97;;
8564;SDS011;4320;51.498;6.556;2022-11-20T14:46:23;29.70;;;16.73;;
8564;SDS011;4320;51.498;6.556;2022-11-20T14:48:50;33.23;;;17.37;;
8564;SDS011;4320;51.498;6.556;2022-11-20T14:56:53;32.03;;;17.90;;
8564;SDS011;4320;51.498;6.556;2022-11-20T14:59:33;32.23;;;18.90;;
8564;SDS011;4320;51.498;6.556;2022-11-20T15:02:04;84.20;;;56.80;;
8564;SDS011;4320;51.498;6.556;2022-11-20T15:04:33;35.87;;;24.07;;
8564;SDS011;4320;51.498;6.556;2022-11-20T15:07:11;33.93;;;17.47;;
8564;SDS011;4320;51.498;6.556;2022-11-20T15:09:58;35.47;;;20.90;;
8564;SDS011;4320;51.498;6.556;2022-11-20T15:12:26;36.80;;;21.03;;
8564;SDS011;4320;51.498;6.556;2022-11-20T15:14:53;36.37;;;20.00;;
8564;SDS011;4320;51.498;6.556;2022-11-20T15:17:18;35.23;;;20.87;;
8564;SDS011;4320;51.498;6.556;2022-11-20T15:19:44;33.60;;;19.20;;
8564;SDS011;4320;51.498;6.556;2022-11-20T15:22:11;56.33;;;29.70;;
8564;SDS011;4320;51.498;6.556;2022-11-20T15:24:43;36.03;;;19.90;;
8564;SDS011;4320;51.498;6.556;2022-11-20T15:27:09;35.77;;;19.83;;
8564;SDS011;4320;51.498;6.556;2022-11-20T15:29:35;35.57;;;18.77;;
8564;SDS011;4320;51.498;6.556;2022-11-20T15:32:01;34.87;;;20.40;;
8564;SDS011;4320;51.498;6.556;2022-11-20T15:34:27;37.37;;;21.77;;
8564;SDS011;4320;51.498;6.556;2022-11-20T15:36:53;48.43;;;24.40;;
8564;SDS011;4320;51.498;6.556;2022-11-20T15:39:19;36.13;;;20.47;;
8564;SDS011;4320;51.498;6.556;2022-11-20T15:41:45;37.60;;;20.67;;
8564;SDS011;4320;51.498;6.556;2022-11-20T15:44:11;41.33;;;20.27;;
8564;SDS011;4320;51.498;6.556;2022-11-20T15:46:37;38.17;;;21.60;;
8564;SDS011;4320;51.498;6.556;2022-11-20T15:49:11;41.23;;;21.27;;
8564;SDS011;4320;51.498;6.556;2022-11-20T15:51:39;45.90;;;22.27;;
8564;SDS011;4320;51.498;6.556;2022-11-20T15:54:12;41.73;;;21.30;;
8564;SDS011;4320;51.498;6.556;2022-11-20T15:56:38;37.13;;;20.20;;
8564;SDS011;4320;51.498;6.556;2022-11-20T15:59:03;40.73;;;21.43;;
8564;SDS011;4320;51.498;6.556;2022-11-20T16:01:29;40.13;;;21.23;;
8564;SDS011;4320;51.498;6.556;2022-11-20T16:03:55;40.30;;;20.53;;
8564;SDS011;4320;51.498;6.556;2022-11-20T16:06:21;37.03;;;20.87;;
8564;SDS011;4320;51.498;6.556;2022-11-20T16:08:47;39.00;;;20.60;;
8564;SDS011;4320;51.498;6.556;2022-11-20T16:11:13;42.80;;;23.23;;
8564;SDS011;4320;51.498;6.556;2022-11-20T16:13:40;47.13;;;23.23;;
8564;SDS011;4320;51.498;6.556;2022-11-20T16:18:53;46.83;;;27.77;;
8564;SDS011;4320;51.498;6.556;2022-11-20T16:21:19;46.33;;;24.83;;
8564;SDS011;4320;51.498;6.556;2022-11-20T16:23:45;48.07;;;25.23;;
8564;SDS011;4320;51.498;6.556;2022-11-20T16:26:11;43.70;;;23.10;;
8564;SDS011;4320;51.498;6.556;2022-11-20T16:28:38;49.27;;;23.27;;
8564;SDS011;4320;51.498;6.556;2022-11-20T16:31:22;48.63;;;23.50;;
8564;SDS011;4320;51.498;6.556;2022-11-20T16:33:49;44.27;;;22.53;;
8564;SDS011;4320;51.498;6.556;2022-11-20T16:36:15;47.83;;;23.43;;
8564;SDS011;4320;51.498;6.556;2022-11-20T16:38:42;51.43;;;25.83;;
8564;SDS011;4320;51.498;6.556;2022-11-20T16:41:08;46.43;;;25.53;;
8564;SDS011;4320;51.498;6.556;2022-11-20T16:43:46;50.50;;;26.13;;
8564;SDS011;4320;51.498;6.556;2022-11-20T16:46:14;45.97;;;23.77;;